sensor_id;sensor_type;location;lat;lon;timestamp;P1;durP1;ratioP1;P2;durP2;ratioP2
30466;SDS011;17258;52.560;13.046;2023-12-14T00:04:19;5.15;;;4.45;;
30466;SDS011;17258;52.560;13.046;2023-12-14T00:14:20;5.27;;;4.77;;
30466;SDS011;17258;52.560;13.046;2023-12-14T00:24:20;6.70;;;5.03;;
30466;SDS011;17258;52.560;13.046;2023-12-14T00:34:21;4.57;;;4.17;;
30466;SDS011;17258;52.560;13.046;2023-12-14T00:44:24;6.30;;;4.82;;
30466;SDS011;17258;52.560;13.046;2023-12-14T00:54:24;7.53;;;4.07;;
30466;SDS011;17258;52.560;13.046;2023-12-14T01:04:25;3.17;;;2.90;;
30466;SDS011;17258;52.560;13.046;2023-12-14T01:14:26;5.00;;;4.47;;
30466;SDS011;17258;52.560;13.046;2023-12-14T01:24:26;4.13;;;3.72;;
30466;SDS011;17258;52.560;13.046;2023-12-14T01:34:27;4.45;;;4.07;;
30466;SDS011;17258;52.560;13.046;2023-12-14T01:44:28;4.40;;;3.70;;
30466;SDS011;17258;52.560;13.046;2023-12-14T01:54:28;3.43;;;3.23;;
30466;SDS011;17258;52.560;13.046;2023-12-14T02:04:29;6.53;;;4.13;;
30466;SDS011;17258;52.560;13.046;2023-12-14T02:14:30;4.07;;;3.75;;
30466;SDS011;17258;52.560;13.046;2023-12-14T02:24:31;4.43;;;3.90;;
30466;SDS011;17258;52.560;13.046;2023-12-14T02:34:31;4.07;;;3.70;;
30466;SDS011;17258;52.560;13.046;2023-12-14T02:44:32;4.13;;;3.83;;
30466;SDS011;17258;52.560;13.046;2023-12-14T02:54:34;4.15;;;3.85;;
30466;SDS011;17258;52.560;13.046;2023-12-14T03:04:37;4.57;;;4.18;;
30466;SDS011;17258;52.560;13.046;2023-12-14T03:14:39;4.15;;;3.83;;
30466;SDS011;17258;52.560;13.046;2023-12-14T03:24:40;3.92;;;3.63;;
30466;SDS011;17258;52.560;13.046;2023-12-14T03:34:42;3.90;;;3.60;;
30466;SDS011;17258;52.560;13.046;2023-12-14T03:44:42;4.53;;;3.67;;
30466;SDS011;17258;52.560;13.046;2023-12-14T03:54:43;3.70;;;3.40;;
30466;SDS011;17258;52.560;13.046;2023-12-14T04:04:43;3.67;;;3.37;;
30466;SDS011;17258;52.560;13.046;2023-12-14T04:14:47;8.10;;;6.90;;
30466;SDS011;17258;52.560;13.046;2023-12-14T04:24:47;4.20;;;3.80;;
30466;SDS011;17258;52.560;13.046;2023-12-14T04:34:48;4.97;;;4.57;;
30466;SDS011;17258;52.560;13.046;2023-12-14T04:44:48;3.70;;;3.40;;
30466;SDS011;17258;52.560;13.046;2023-12-14T04:54:49;4.47;;;4.17;;
30466;SDS011;17258;52.560;13.046;2023-12-14T05:04:50;3.30;;;3.00;;
30466;SDS011;17258;52.560;13.046;2023-12-14T05:14:51;4.40;;;3.90;;
30466;SDS011;17258;52.560;13.046;2023-12-14T05:24:52;4.30;;;2.90;;
30466;SDS011;17258;52.560;13.046;2023-12-14T05:34:53;4.18;;;3.78;;
30466;SDS011;17258;52.560;13.046;2023-12-14T05:44:54;4.65;;;3.90;;
30466;SDS011;17258;52.560;13.046;2023-12-14T05:54:54;3.30;;;3.00;;
30466;SDS011;17258;52.560;13.046;2023-12-14T06:04:55;3.83;;;3.53;;
30466;SDS011;17258;52.560;13.046;2023-12-14T06:14:57;4.25;;;3.75;;
30466;SDS011;17258;52.560;13.046;2023-12-14T06:24:58;3.97;;;3.27;;
30466;SDS011;17258;52.560;13.046;2023-12-14T06:34:59;3.93;;;3.53;;
30466;SDS011;17258;52.560;13.046;2023-12-14T06:45:01;3.38;;;3.15;;
30466;SDS011;17258;52.560;13.046;2023-12-14T06:55:03;4.70;;;3.60;;
30466;SDS011;17258;52.560;13.046;2023-12-14T07:05:04;3.42;;;3.22;;
30466;SDS011;17258;52.560;13.046;2023-12-14T07:15:05;4.55;;;4.13;;
30466;SDS011;17258;52.560;13.046;2023-12-14T07:25:06;4.35;;;3.92;;
30466;SDS011;17258;52.560;13.046;2023-12-14T07:35:08;7.53;;;4.10;;
30466;SDS011;17258;52.560;13.046;2023-12-14T07:45:10;5.32;;;4.30;;
30466;SDS011;17258;52.560;13.046;2023-12-14T07:55:11;5.05;;;4.65;;
30466;SDS011;17258;52.560;13.046;2023-12-14T08:05:14;5.03;;;4.60;;
30466;SDS011;17258;52.560;13.046;2023-12-14T08:15:14;6.78;;;5.35;;
30466;SDS011;17258;52.560;13.046;2023-12-14T08:25:16;5.80;;;5.20;;
30466;SDS011;17258;52.560;13.046;2023-12-14T08:35:17;7.22;;;6.20;;
30466;SDS011;17258;52.560;13.046;2023-12-14T08:45:18;6.67;;;6.07;;
30466;SDS011;17258;52.560;13.046;2023-12-14T08:55:18;8.47;;;7.50;;
30466;SDS011;17258;52.560;13.046;2023-12-14T09:05:20;8.90;;;6.17;;
30466;SDS011;17258;52.560;13.046;2023-12-14T09:15:21;7.07;;;6.35;;
30466;SDS011;17258;52.560;13.046;2023-12-14T09:25:22;5.30;;;4.93;;
30466;SDS011;17258;52.560;13.046;2023-12-14T09:35:23;7.80;;;7.00;;
30466;SDS011;17258;52.560;13.046;2023-12-14T09:45:24;6.85;;;6.28;;
30466;SDS011;17258;52.560;13.046;2023-12-14T09:55:29;8.13;;;7.32;;
30466;SDS011;17258;52.560;13.046;2023-12-14T10:05:31;7.68;;;6.88;;
30466;SDS011;17258;52.560;13.046;2023-12-14T10:15:40;7.00;;;6.33;;
30466;SDS011;17258;52.560;13.046;2023-12-14T10:25:45;6.80;;;6.22;;
30466;SDS011;17258;52.560;13.046;2023-12-14T10:35:46;7.85;;;7.05;;
30466;SDS011;17258;52.560;13.046;2023-12-14T10:45:50;8.60;;;7.22;;
30466;SDS011;17258;52.560;13.046;2023-12-14T10:55:54;7.28;;;6.65;;
30466;SDS011;17258;52.560;13.046;2023-12-14T11:05:57;7.55;;;6.65;;
30466;SDS011;17258;52.560;13.046;2023-12-14T11:16:00;6.15;;;5.55;;
30466;SDS011;17258;52.560;13.046;2023-12-14T11:26:04;7.33;;;6.63;;
30466;SDS011;17258;52.560;13.046;2023-12-14T11:36:10;8.98;;;7.10;;
30466;SDS011;17258;52.560;13.046;2023-12-14T11:46:12;6.88;;;6.28;;
30466;SDS011;17258;52.560;13.046;2023-12-14T11:56:16;6.70;;;5.47;;
30466;SDS011;17258;52.560;13.046;2023-12-14T12:06:24;5.93;;;5.45;;
30466;SDS011;17258;52.560;13.046;2023-12-14T12:16:30;6.15;;;5.63;;
30466;SDS011;17258;52.560;13.046;2023-12-14T12:26:31;7.22;;;5.75;;
30466;SDS011;17258;52.560;13.046;2023-12-14T12:36:31;6.17;;;5.67;;
30466;SDS011;17258;52.560;13.046;2023-12-14T12:46:32;6.57;;;5.53;;
30466;SDS011;17258;52.560;13.046;2023-12-14T12:56:36;7.50;;;6.70;;
30466;SDS011;17258;52.560;13.046;2023-12-14T13:06:37;5.68;;;5.20;;
30466;SDS011;17258;52.560;13.046;2023-12-14T13:16:38;5.57;;;5.07;;
30466;SDS011;17258;52.560;13.046;2023-12-14T13:26:39;5.60;;;5.18;;
30466;SDS011;17258;52.560;13.046;2023-12-14T13:36:39;5.68;;;5.20;;
30466;SDS011;17258;52.560;13.046;2023-12-14T13:46:40;6.27;;;5.80;;
30466;SDS011;17258;52.560;13.046;2023-12-14T13:56:41;5.30;;;4.90;;
30466;SDS011;17258;52.560;13.046;2023-12-14T14:06:42;5.88;;;4.93;;
30466;SDS011;17258;52.560;13.046;2023-12-14T14:16:42;6.13;;;5.57;;
30466;SDS011;17258;52.560;13.046;2023-12-14T14:26:43;4.73;;;4.33;;
30466;SDS011;17258;52.560;13.046;2023-12-14T14:36:45;5.97;;;5.38;;
30466;SDS011;17258;52.560;13.046;2023-12-14T14:46:45;6.13;;;5.53;;
30466;SDS011;17258;52.560;13.046;2023-12-14T14:56:46;9.43;;;5.63;;
30466;SDS011;17258;52.560;13.046;2023-12-14T15:06:47;5.80;;;5.28;;
30466;SDS011;17258;52.560;13.046;2023-12-14T15:16:48;5.80;;;5.23;;
30466;SDS011;17258;52.560;13.046;2023-12-14T15:26:48;7.40;;;6.20;;
30466;SDS011;17258;52.560;13.046;2023-12-14T15:36:49;8.38;;;6.57;;
30466;SDS011;17258;52.560;13.046;2023-12-14T15:46:50;7.30;;;6.70;;
30466;SDS011;17258;52.560;13.046;2023-12-14T15:56:50;7.27;;;4.73;;
30466;SDS011;17258;52.560;13.046;2023-12-14T16:06:51;10.63;;;5.90;;
30466;SDS011;17258;52.560;13.046;2023-12-14T16:16:52;8.03;;;5.77;;
30466;SDS011;17258;52.560;13.046;2023-12-14T16:26:52;9.20;;;8.27;;
30466;SDS011;17258;52.560;13.046;2023-12-14T16:36:56;6.95;;;6.28;;
30466;SDS011;17258;52.560;13.046;2023-12-14T16:46:56;6.63;;;6.07;;
30466;SDS011;17258;52.560;13.046;2023-12-14T16:56:57;6.40;;;5.23;;
30466;SDS011;17258;52.560;13.046;2023-12-14T17:06:58;6.70;;;4.95;;
30466;SDS011;17258;52.560;13.046;2023-12-14T17:16:59;6.37;;;5.93;;
30466;SDS011;17258;52.560;13.046;2023-12-14T17:26:59;6.83;;;6.23;;
30466;SDS011;17258;52.560;13.046;2023-12-14T17:37:00;5.53;;;4.87;;
30466;SDS011;17258;52.560;13.046;2023-12-14T17:47:01;4.33;;;3.93;;
30466;SDS011;17258;52.560;13.046;2023-12-14T17:57:01;6.40;;;5.07;;
30466;SDS011;17258;52.560;13.046;2023-12-14T18:07:02;7.57;;;6.88;;
30466;SDS011;17258;52.560;13.046;2023-12-14T18:17:03;6.70;;;5.10;;
30466;SDS011;17258;52.560;13.046;2023-12-14T18:27:04;7.10;;;5.57;;
30466;SDS011;17258;52.560;13.046;2023-12-14T18:37:04;5.10;;;4.70;;
30466;SDS011;17258;52.560;13.046;2023-12-14T18:47:05;7.00;;;5.38;;
30466;SDS011;17258;52.560;13.046;2023-12-14T18:57:06;5.40;;;4.97;;
30466;SDS011;17258;52.560;13.046;2023-12-14T19:07:06;4.65;;;4.25;;
30466;SDS011;17258;52.560;13.046;2023-12-14T19:17:07;8.13;;;6.60;;
30466;SDS011;17258;52.560;13.046;2023-12-14T19:27:08;10.73;;;9.53;;
30466;SDS011;17258;52.560;13.046;2023-12-14T19:37:09;6.80;;;6.05;;
30466;SDS011;17258;52.560;13.046;2023-12-14T19:47:10;9.88;;;8.88;;
30466;SDS011;17258;52.560;13.046;2023-12-14T19:57:11;10.93;;;9.53;;
30466;SDS011;17258;52.560;13.046;2023-12-14T20:07:12;8.73;;;7.32;;
30466;SDS011;17258;52.560;13.046;2023-12-14T20:17:12;11.45;;;9.27;;
30466;SDS011;17258;52.560;13.046;2023-12-14T20:27:13;19.00;;;11.87;;
30466;SDS011;17258;52.560;13.046;2023-12-14T20:37:14;8.82;;;7.93;;
30466;SDS011;17258;52.560;13.046;2023-12-14T20:47:17;7.20;;;6.57;;
30466;SDS011;17258;52.560;13.046;2023-12-14T20:57:18;7.57;;;6.80;;
30466;SDS011;17258;52.560;13.046;2023-12-14T21:07:19;7.65;;;6.70;;
30466;SDS011;17258;52.560;13.046;2023-12-14T21:17:20;11.50;;;8.88;;
30466;SDS011;17258;52.560;13.046;2023-12-14T21:27:21;9.43;;;6.90;;
30466;SDS011;17258;52.560;13.046;2023-12-14T21:37:40;11.65;;;8.02;;
30466;SDS011;17258;52.560;13.046;2023-12-14T21:47:41;13.75;;;10.35;;
30466;SDS011;17258;52.560;13.046;2023-12-14T21:57:42;7.22;;;6.53;;
30466;SDS011;17258;52.560;13.046;2023-12-14T22:07:42;7.33;;;6.17;;
30466;SDS011;17258;52.560;13.046;2023-12-14T22:17:43;8.37;;;6.40;;
30466;SDS011;17258;52.560;13.046;2023-12-14T22:27:44;6.47;;;5.85;;
30466;SDS011;17258;52.560;13.046;2023-12-14T22:37:44;6.90;;;6.20;;
30466;SDS011;17258;52.560;13.046;2023-12-14T22:47:45;6.70;;;5.97;;
30466;SDS011;17258;52.560;13.046;2023-12-14T22:57:46;5.50;;;5.00;;
30466;SDS011;17258;52.560;13.046;2023-12-14T23:07:46;5.00;;;4.40;;
30466;SDS011;17258;52.560;13.046;2023-12-14T23:17:47;5.22;;;4.72;;
30466;SDS011;17258;52.560;13.046;2023-12-14T23:27:54;4.57;;;4.18;;
30466;SDS011;17258;52.560;13.046;2023-12-14T23:37:57;6.10;;;4.40;;
30466;SDS011;17258;52.560;13.046;2023-12-14T23:47:58;7.33;;;4.47;;
30466;SDS011;17258;52.560;13.046;2023-12-14T23:57:59;7.70;;;4.97;;
